Time;durP1;ratioP1;P1;durP2;ratioP2;P2;SDS_P1;SDS_P2;PMS_P1;PMS_P2;Temp;Humidity;BMP_temperature;BMP_pressure;BME280_temperature;BME280_humidity;BME280_pressure;Samples;Min_cycle;Max_cycle;Signal;HPM_P1;HPM_P2
2023/04/06 00:01:51;;;;;;;9.33;6.33;;;3.10;48.90;;;6.56;36.19;97811.03;5063937;28;20425;-43
2023/04/06 00:04:19;;;;;;;11.20;6.67;;;3.10;49.20;;;6.54;35.96;97806.88;5061200;28;20453;-44
2023/04/06 00:06:46;;;;;;;8.43;6.43;;;3.10;49.20;;;6.54;35.91;97802.41;5060126;28;20053;-42
2023/04/06 00:09:14;;;;;;;8.00;6.50;;;3.20;49.80;;;6.53;35.45;97808.66;5061340;28;20045;-45
2023/04/06 00:11:41;;;;;;;8.97;7.00;;;3.10;49.40;;;6.53;35.93;97806.00;5063432;28;20045;-43
2023/04/06 00:14:09;;;;;;;10.63;6.80;;;3.20;49.20;;;6.56;35.82;97807.56;5060862;28;20048;-43
2023/04/06 00:16:37;;;;;;;9.07;7.07;;;3.20;49.40;;;6.55;36.29;97808.53;5059967;28;20037;-43
2023/04/06 00:19:04;;;;;;;11.83;6.70;;;3.10;49.70;;;6.52;36.20;97795.56;5059999;28;20032;-42
2023/04/06 00:21:32;;;;;;;9.20;6.67;;;3.10;50.00;;;6.47;36.22;97801.25;5051927;28;20052;-45
2023/04/06 00:24:00;;;;;;;10.83;6.93;;;3.00;50.20;;;6.44;36.43;97794.41;5059653;28;20045;-43
2023/04/06 00:26:27;;;;;;;8.43;6.47;;;3.00;50.40;;;6.40;36.97;97795.66;5062675;28;20067;-43
2023/04/06 00:28:56;;;;;;;9.63;6.87;;;2.90;51.00;;;6.34;36.64;97797.97;5061664;28;20517;-44
2023/04/06 00:31:23;;;;;;;9.60;6.27;;;2.80;51.50;;;6.32;36.07;97798.13;5063234;28;20048;-43
2023/04/06 00:33:51;;;;;;;11.23;7.43;;;2.80;51.40;;;6.29;36.11;97791.28;5062808;28;20036;-44
2023/04/06 00:36:19;;;;;;;11.23;6.50;;;2.80;51.30;;;6.28;36.52;97792.25;5059420;28;20048;-45
2023/04/06 00:38:46;;;;;;;10.00;6.53;;;2.80;51.40;;;6.30;35.92;97789.47;5057804;28;20049;-45
2023/04/06 00:41:14;;;;;;;11.53;7.20;;;2.80;51.10;;;6.35;35.87;97786.44;5056205;28;20462;-50
2023/04/06 00:43:41;;;;;;;10.53;7.23;;;2.90;51.10;;;6.37;36.20;97787.13;5061320;28;20049;-44
2023/04/06 00:46:09;;;;;;;9.93;6.13;;;2.90;51.10;;;6.36;36.76;97786.31;5061617;28;20044;-47
2023/04/06 00:48:37;;;;;;;8.97;6.50;;;2.90;50.90;;;6.36;36.46;97785.44;5038455;28;20041;-44
2023/04/06 00:51:05;;;;;;;10.00;6.77;;;2.90;51.00;;;6.36;36.34;97782.81;5054174;28;20037;-43
2023/04/06 00:53:33;;;;;;;11.93;6.80;;;3.00;50.70;;;6.38;36.80;97788.81;5062115;28;20409;-43
2023/04/06 00:56:02;;;;;;;9.57;7.27;;;2.90;50.70;;;6.36;36.34;97785.44;5061898;28;20524;-45
2023/04/06 00:58:40;;;;;;;10.20;7.13;;;2.90;51.10;;;6.34;36.38;97779.47;5057946;28;20041;-43
2023/04/06 01:01:09;;;;;;;9.95;6.85;;;2.90;51.00;;;6.34;36.32;97780.31;5058176;28;20060;-44
2023/04/06 01:03:37;;;;;;;11.10;7.33;;;2.90;51.20;;;6.33;36.59;97778.63;5061553;28;20055;-44
2023/04/06 01:06:05;;;;;;;10.37;6.50;;;2.90;51.00;;;6.32;36.51;97779.63;5062971;28;20055;-45
2023/04/06 01:08:37;;;;;;;11.80;7.60;;;2.90;51.00;;;6.32;35.91;97779.63;5058235;28;20414;-43
2023/04/06 01:11:18;;;;;;;11.37;7.70;;;2.90;50.80;;;6.31;36.28;97770.81;5057273;28;20049;-43
2023/04/06 01:13:48;;;;;;;10.87;7.30;;;2.90;50.50;;;6.27;36.73;97777.34;5057526;28;20048;-43
2023/04/06 01:16:24;;;;;;;11.60;7.50;;;2.90;51.00;;;6.27;36.54;97773.88;5059611;28;20061;-43
2023/04/06 01:19:23;;;;;;;10.13;7.10;;;2.80;50.50;;;6.26;35.77;97773.03;5043935;28;20414;-43
2023/04/06 01:21:53;;;;;;;10.93;7.60;;;2.80;50.40;;;6.21;36.18;97769.94;5057261;28;20049;-44
2023/04/06 01:24:30;;;;;;;10.80;8.10;;;2.80;50.50;;;6.18;36.64;97766.72;5061414;28;20510;-44
2023/04/06 01:27:03;;;;;;;13.52;8.50;;;2.80;50.40;;;6.17;36.35;97773.81;5063524;28;20061;-44
2023/04/06 01:29:41;;;;;;;10.67;8.10;;;2.70;50.50;;;6.16;36.64;97768.66;5057875;28;20060;-45
2023/04/06 01:32:11;;;;;;;9.17;7.33;;;2.70;50.60;;;6.14;36.61;97766.13;5065618;28;20048;-43
2023/04/06 01:34:46;;;;;;;10.93;7.27;;;2.70;50.90;;;6.13;36.51;97759.19;5057088;28;20060;-43
2023/04/06 01:37:14;;;;;;;12.53;6.87;;;2.70;51.00;;;6.07;36.98;97755.25;5059544;28;20041;-45
2023/04/06 01:39:44;;;;;;;11.87;7.53;;;2.60;51.80;;;6.02;36.94;97757.44;5060843;28;20387;-43
2023/04/06 01:42:18;;;;;;;16.77;8.00;;;2.50;52.50;;;6.02;36.87;97754.81;5059605;28;20075;-45
2023/04/06 01:44:47;;;;;;;9.50;6.33;;;2.50;52.00;;;6.03;37.13;97758.28;5056905;28;20045;-43
2023/04/06 01:47:16;;;;;;;14.13;7.13;;;2.50;51.80;;;6.02;37.29;97759.25;5057570;28;20056;-42
2023/04/06 01:49:44;;;;;;;10.73;7.40;;;2.50;52.00;;;5.99;37.49;97760.38;5060424;28;20059;-43
2023/04/06 01:52:15;;;;;;;10.00;6.70;;;2.50;52.20;;;5.96;37.15;97757.97;5059823;28;20505;-45
2023/04/06 01:54:49;;;;;;;13.20;7.23;;;2.40;52.60;;;5.97;37.47;97753.50;5056934;28;20049;-42
2023/04/06 01:57:25;;;;;;;11.67;6.93;;;2.40;52.70;;;5.98;37.24;97757.84;5058917;28;20052;-44
2023/04/06 01:59:59;;;;;;;11.52;7.15;;;2.50;52.30;;;6.00;37.92;97755.91;5061051;28;20044;-43
2023/04/06 02:02:39;;;;;;;9.83;6.87;;;2.50;52.60;;;6.02;37.09;97746.88;5050973;28;20083;-42
2023/04/06 02:05:14;;;;;;;11.23;7.47;;;2.50;52.60;;;6.01;37.86;97742.56;5057399;28;20049;-44
2023/04/06 02:07:41;;;;;;;8.03;6.47;;;2.50;52.70;;;6.05;36.93;97746.63;5060716;28;20044;-44
2023/04/06 02:10:14;;;;;;;13.30;8.73;;;2.50;52.30;;;6.09;37.38;97742.75;5060597;28;20059;-43
2023/04/06 02:12:42;;;;;;;12.37;6.63;;;2.60;52.00;;;6.11;37.32;97745.28;5049096;28;20068;-43
2023/04/06 02:15:14;;;;;;;12.00;7.57;;;2.60;52.20;;;6.10;37.25;97744.41;5057147;28;20045;-43
2023/04/06 02:17:42;;;;;;;11.90;7.87;;;2.60;52.10;;;6.13;37.47;97747.75;5060827;28;20060;-42
2023/04/06 02:20:10;;;;;;;9.93;6.60;;;2.60;52.50;;;6.09;37.27;97748.03;5060812;28;20398;-44
2023/04/06 02:22:39;;;;;;;11.30;8.00;;;2.60;52.50;;;6.10;38.18;97747.06;5045536;28;20049;-44
2023/04/06 02:25:07;;;;;;;13.77;8.40;;;2.60;52.70;;;6.12;37.32;97741.63;5052656;28;20061;-42
2023/04/06 02:27:35;;;;;;;10.73;6.70;;;2.60;52.60;;;6.14;37.50;97745.00;5061427;28;20413;-44
2023/04/06 02:30:04;;;;;;;9.60;6.47;;;2.60;52.70;;;6.13;37.58;97745.97;5062179;28;20063;-43
2023/04/06 02:32:31;;;;;;;15.20;7.67;;;2.60;52.50;;;6.11;37.19;97743.44;5059280;28;20041;-42
2023/04/06 02:35:00;;;;;;;10.13;7.00;;;2.60;52.70;;;6.10;37.09;97739.13;5059459;28;20044;-46
2023/04/06 02:37:29;;;;;;;9.63;8.23;;;2.60;52.80;;;6.05;37.79;97738.69;5062092;28;20053;-42
2023/04/06 02:39:58;;;;;;;9.70;7.80;;;2.50;53.10;;;6.02;37.97;97740.75;5065457;28;20416;-42
2023/04/06 02:42:27;;;;;;;9.50;7.20;;;2.50;53.20;;;5.99;37.50;97733.06;5061666;28;20049;-43
2023/04/06 02:44:54;;;;;;;9.33;6.47;;;2.50;52.90;;;5.97;37.38;97727.94;5059472;28;20060;-42
2023/04/06 02:47:26;;;;;;;10.83;6.43;;;2.50;52.80;;;5.94;37.86;97732.63;5060385;28;20060;-43
2023/04/06 02:49:54;;;;;;;9.30;6.57;;;2.40;52.90;;;5.89;38.01;97730.34;5058260;28;20045;-42
2023/04/06 02:52:21;;;;;;;10.00;7.27;;;2.30;53.40;;;5.83;37.90;97730.88;5060884;28;20071;-43
2023/04/06 02:54:50;;;;;;;10.20;7.33;;;2.30;53.50;;;5.81;38.05;97725.69;5055393;28;20040;-42
2023/04/06 02:57:24;;;;;;;10.77;7.33;;;2.30;53.60;;;5.82;38.04;97731.84;5062156;28;20044;-42
2023/04/06 02:59:52;;;;;;;9.27;6.40;;;2.30;53.20;;;5.83;37.76;97726.41;5060673;28;20044;-43
2023/04/06 03:02:26;;;;;;;12.60;7.57;;;2.30;53.00;;;5.84;37.74;97727.28;5061176;28;20045;-43
2023/04/06 03:05:03;;;;;;;13.37;6.87;;;2.40;52.90;;;5.82;37.48;97722.09;5063509;28;20041;-43
2023/04/06 03:07:35;;;;;;;12.50;7.15;;;2.40;53.00;;;5.80;37.58;97716.13;5044940;28;20040;-45
2023/04/06 03:10:03;;;;;;;7.43;5.97;;;2.30;52.80;;;5.80;36.95;97725.84;5059726;28;20421;-43
2023/04/06 03:12:32;;;;;;;11.50;7.17;;;2.30;52.30;;;5.75;37.81;97718.31;5045221;28;20041;-42
2023/04/06 03:15:18;;;;;;;9.70;7.27;;;2.20;52.40;;;5.75;37.41;97720.94;5065860;28;20059;-43
2023/04/06 03:17:51;;;;;;;8.83;5.90;;;2.20;52.20;;;5.71;37.69;97723.00;5059473;28;20048;-42
2023/04/06 03:20:33;;;;;;;12.20;7.80;;;2.20;52.50;;;5.69;37.95;97718.81;5054387;28;20049;-43
2023/04/06 03:23:01;;;;;;;10.50;6.87;;;2.20;52.40;;;5.70;37.90;97720.50;5062625;28;20179;-42
2023/04/06 03:25:34;;;;;;;10.05;7.53;;;2.30;52.40;;;5.72;37.73;97731.78;5060288;28;20513;-43
2023/04/06 03:28:05;;;;;;;12.87;7.43;;;2.20;52.70;;;5.68;38.00;97725.91;5059571;28;20053;-43
2023/04/06 03:30:38;;;;;;;9.65;6.93;;;2.20;52.80;;;5.62;37.70;97734.34;5061871;28;20057;-42
2023/04/06 03:33:06;;;;;;;12.00;7.13;;;2.10;53.20;;;5.57;37.73;97735.69;5045950;28;20052;-42
2023/04/06 03:35:42;;;;;;;12.73;7.83;;;2.00;53.30;;;5.52;37.95;97731.66;5051372;28;20445;-42
2023/04/06 03:38:09;;;;;;;10.27;7.40;;;2.00;53.50;;;5.55;37.83;97732.34;5039635;28;20857;-45
2023/04/06 03:40:37;;;;;;;8.77;7.27;;;2.00;53.50;;;5.52;37.65;97733.44;5062688;28;20049;-42
2023/04/06 03:43:05;;;;;;;12.90;7.87;;;2.00;53.80;;;5.51;37.78;97731.75;5060920;28;20048;-42
2023/04/06 03:45:35;;;;;;;12.93;7.67;;;2.00;53.90;;;5.50;38.44;97735.34;5060007;28;20048;-44
2023/04/06 03:48:05;;;;;;;10.40;7.40;;;2.10;53.80;;;5.51;38.40;97735.25;5059246;28;20056;-42
2023/04/06 03:50:35;;;;;;;11.47;7.90;;;2.10;53.70;;;5.50;38.38;97730.91;5061710;28;20052;-43
2023/04/06 03:53:03;;;;;;;11.63;8.07;;;2.10;54.30;;;5.50;38.44;97738.81;5062065;28;20295;-44
2023/04/06 03:55:30;;;;;;;16.53;10.40;;;2.10;54.00;;;5.50;38.53;97738.00;5060766;28;20142;-43
2023/04/06 03:57:58;;;;;;;18.30;12.17;;;2.00;54.10;;;5.48;38.18;97742.56;5059977;28;20045;-42
2023/04/06 04:00:25;;;;;;;19.70;12.87;;;2.00;54.50;;;5.45;38.22;97738.38;5059232;28;20045;-43
2023/04/06 04:02:55;;;;;;;15.37;9.17;;;1.90;54.30;;;5.44;38.12;97743.78;5062968;28;20055;-44
2023/04/06 04:05:25;;;;;;;13.20;8.17;;;1.90;54.20;;;5.42;38.20;97741.28;5061194;28;20051;-43
2023/04/06 04:07:53;;;;;;;13.70;10.10;;;1.90;54.40;;;5.43;38.33;97750.88;5060509;28;20052;-42
2023/04/06 04:10:24;;;;;;;13.20;8.30;;;1.90;54.80;;;5.40;38.70;97747.66;5059624;28;20041;-42
2023/04/06 04:12:52;;;;;;;11.17;8.20;;;1.90;54.60;;;5.38;38.43;97752.22;5060786;28;20048;-42
2023/04/06 04:15:20;;;;;;;12.40;8.10;;;1.80;54.60;;;5.35;38.37;97750.69;5061978;28;20036;-42
2023/04/06 04:17:49;;;;;;;12.80;7.53;;;1.80;54.90;;;5.32;38.61;97749.09;5050532;28;20414;-43
2023/04/06 04:20:17;;;;;;;12.27;7.53;;;1.80;54.80;;;5.31;38.30;97744.81;5060222;28;20041;-42
2023/04/06 04:22:44;;;;;;;13.23;7.40;;;1.80;55.10;;;5.28;38.88;97758.25;5061067;28;20041;-44
2023/04/06 04:25:14;;;;;;;14.57;8.87;;;1.80;55.10;;;5.29;38.72;97754.66;5062046;28;20106;-42
2023/04/06 04:27:46;;;;;;;15.83;7.80;;;1.80;55.20;;;5.28;38.79;97755.59;5050698;28;20041;-42
2023/04/06 04:30:15;;;;;;;15.00;8.23;;;1.80;55.40;;;5.28;38.91;97752.97;5058383;28;20059;-42
2023/04/06 04:32:42;;;;;;;13.00;7.50;;;1.80;54.90;;;5.26;38.60;97746.97;5061179;28;20044;-42
2023/04/06 04:35:11;;;;;;;10.87;7.83;;;1.80;54.80;;;5.29;38.70;97759.06;5061934;28;20055;-43
2023/04/06 04:37:41;;;;;;;8.93;6.93;;;1.80;54.80;;;5.29;38.63;97756.44;5058845;28;20047;-42
2023/04/06 04:40:11;;;;;;;14.57;7.33;;;1.80;54.40;;;5.31;38.59;97750.09;5058292;28;20044;-42
2023/04/06 04:43:01;;;;;;;9.60;6.40;;;1.90;54.20;;;5.34;38.66;97746.34;5052806;28;20060;-42
2023/04/06 04:45:33;;;;;;;11.40;7.37;;;1.90;53.60;;;5.37;38.71;97742.63;5059644;28;20041;-44
2023/04/06 04:48:10;;;;;;;11.30;7.13;;;2.00;53.60;;;5.40;38.51;97752.94;5061879;28;20045;-43
2023/04/06 04:50:49;;;;;;;11.37;7.63;;;2.00;53.50;;;5.40;38.12;97753.75;5058326;28;20041;-42
2023/04/06 04:53:19;;;;;;;10.67;7.37;;;2.10;53.60;;;5.41;38.41;97762.50;5065219;28;20059;-42
2023/04/06 04:55:48;;;;;;;12.33;7.70;;;2.20;53.50;;;5.40;38.14;97759.03;5050044;28;20049;-42
2023/04/06 04:58:18;;;;;;;13.07;7.70;;;2.10;53.60;;;5.41;38.63;97762.50;5057823;28;20059;-43
2023/04/06 05:00:57;;;;;;;13.07;8.40;;;2.00;53.80;;;5.37;38.87;97758.44;5042738;28;20505;-43
2023/04/06 05:03:27;;;;;;;13.27;7.80;;;2.00;54.00;;;5.37;39.35;97751.41;5058057;28;20068;-43
2023/04/06 05:06:02;;;;;;;11.33;6.93;;;2.00;54.40;;;5.39;38.13;97760.03;5060890;28;20047;-43
2023/04/06 05:08:33;;;;;;;15.43;7.90;;;2.00;54.00;;;5.39;38.51;97767.09;5059858;28;20040;-42
2023/04/06 05:11:02;;;;;;;11.80;7.73;;;1.90;54.30;;;5.41;38.61;97763.38;5057595;28;20037;-43
2023/04/06 05:13:34;;;;;;;13.83;8.83;;;1.90;54.30;;;5.40;38.32;97769.59;5058515;28;20410;-44
2023/04/06 05:16:08;;;;;;;;;;;1.90;54.50;;;5.36;38.25;97770.81;5061736;28;20049;-44
2023/04/06 05:18:36;;;;;;;11.60;7.97;;;2.00;55.40;;;5.44;38.87;97764.91;5076168;28;20099;-43
2023/04/06 05:21:05;;;;;;;12.10;7.90;;;1.90;54.50;;;5.43;39.09;97774.66;5057301;28;20045;-43
2023/04/06 05:23:42;;;;;;;12.40;8.00;;;2.00;55.00;;;5.44;39.35;97783.41;5059859;28;20049;-45
2023/04/06 05:26:09;;;;;;;14.03;7.83;;;2.00;55.00;;;5.45;39.38;97779.81;5060898;28;20422;-43
2023/04/06 05:28:37;;;;;;;15.00;8.33;;;2.00;55.90;;;5.44;38.98;97781.59;5059435;28;20063;-43
2023/04/06 05:31:06;;;;;;;11.43;9.63;;;2.00;55.70;;;5.45;39.12;97782.44;5057430;28;20056;-43
2023/04/06 05:33:43;;;;;;;12.47;8.10;;;2.00;56.00;;;5.43;38.64;97777.28;5052143;28;20056;-44
2023/04/06 05:36:15;;;;;;;11.97;7.77;;;2.00;55.40;;;5.42;39.21;97780.03;5061266;28;20413;-43
2023/04/06 05:38:45;;;;;;;13.37;7.93;;;1.90;55.90;;;5.41;39.66;97787.13;5059549;28;20041;-43
2023/04/06 05:41:42;;;;;;;12.00;7.43;;;2.00;56.10;;;5.46;39.37;97784.94;5043747;28;20064;-44
2023/04/06 05:44:11;;;;;;;11.40;7.50;;;2.00;56.00;;;5.50;39.37;97788.16;5060650;28;20060;-44
2023/04/06 05:46:41;;;;;;;13.97;7.77;;;2.10;55.60;;;5.48;39.10;97782.19;5058528;28;20048;-43
2023/04/06 05:49:14;;;;;;;16.23;10.13;;;2.10;55.80;;;5.50;39.59;97786.34;5057158;28;20052;-43
2023/04/06 05:51:41;;;;;;;15.80;10.13;;;2.10;55.70;;;5.50;39.82;97789.00;5059433;28;20553;-43
2023/04/06 05:54:09;;;;;;;21.07;9.87;;;2.10;55.90;;;5.54;40.02;97784.31;5061853;28;20055;-43
2023/04/06 05:56:37;;;;;;;21.50;9.87;;;2.20;55.60;;;5.60;39.61;97790.91;5059194;28;20037;-43
2023/04/06 05:59:06;;;;;;;12.90;9.23;;;2.30;56.00;;;5.66;39.83;97790.38;5055053;28;20049;-44
2023/04/06 06:01:34;;;;;;;14.50;9.07;;;2.30;56.20;;;5.66;39.89;97796.53;5059689;28;20041;-44
2023/04/06 06:04:03;;;;;;;17.63;10.00;;;2.30;56.40;;;5.69;39.88;97801.53;5057151;28;20203;-42
2023/04/06 06:06:33;;;;;;;18.03;10.77;;;2.30;56.30;;;5.73;39.51;97795.03;5057690;28;20037;-42
2023/04/06 06:09:14;;;;;;;20.60;11.27;;;2.40;56.20;;;5.76;39.81;97793.97;5063381;28;20045;-42
2023/04/06 06:11:51;;;;;;;20.67;12.40;;;2.30;56.60;;;5.79;39.90;97796.31;5052796;28;20049;-43
2023/04/06 06:14:22;;;;;;;19.23;12.30;;;2.40;56.20;;;5.87;39.46;97796.56;5060168;28;20048;-42
2023/04/06 06:16:50;;;;;;;18.50;11.60;;;2.50;56.10;;;5.94;40.11;97799.50;5064234;28;20111;-45
2023/04/06 06:19:19;;;;;;;15.77;11.40;;;2.60;56.20;;;6.00;40.12;97801.66;5063631;28;20051;-45
2023/04/06 06:21:50;;;;;;;15.60;11.50;;;2.70;56.10;;;6.06;39.76;97805.59;5061094;28;20052;-43
2023/04/06 06:24:17;;;;;;;15.07;11.93;;;2.70;56.10;;;6.11;40.22;97800.78;5059745;28;20426;-43
2023/04/06 06:26:45;;;;;;;16.43;11.03;;;2.80;56.00;;;6.16;40.34;97803.03;5062898;28;20501;-43
2023/04/06 06:29:14;;;;;;;17.67;10.40;;;2.80;55.90;;;6.22;39.82;97802.50;5065823;28;20051;-44
2023/04/06 06:31:42;;;;;;;13.67;9.07;;;2.90;55.90;;;6.31;39.98;97804.38;5062138;28;20064;-43
2023/04/06 06:34:10;;;;;;;11.83;8.47;;;3.00;55.80;;;6.37;39.80;97806.47;5059800;28;20433;-45
2023/04/06 06:36:38;;;;;;;14.13;8.40;;;3.00;56.00;;;6.42;40.41;97806.09;5045600;28;20045;-47
2023/04/06 06:39:08;;;;;;;15.97;9.80;;;3.10;56.30;;;6.48;39.82;97808.22;5064079;28;20051;-45
2023/04/06 06:41:37;;;;;;;10.70;8.57;;;3.20;56.40;;;6.55;40.63;97811.16;5061178;28;20249;-43
2023/04/06 06:44:05;;;;;;;15.23;9.07;;;3.20;56.50;;;6.60;40.25;97812.44;5058591;28;20037;-43
2023/04/06 06:46:35;;;;;;;17.60;9.60;;;3.30;56.40;;;6.67;40.03;97812.78;5061329;28;20040;-46
2023/04/06 06:49:03;;;;;;;14.30;9.07;;;3.30;56.30;;;6.72;40.24;97812.38;5047388;28;20056;-44
2023/04/06 06:51:30;;;;;;;16.70;10.07;;;3.40;56.20;;;6.77;40.46;97813.66;5063077;28;20041;-43
2023/04/06 06:53:58;;;;;;;16.07;9.23;;;3.50;56.50;;;6.84;40.30;97811.28;5060184;28;20541;-43
2023/04/06 06:56:27;;;;;;;12.23;8.97;;;3.50;56.40;;;6.89;40.30;97819.69;5059898;28;20049;-47
2023/04/06 06:58:56;;;;;;;12.80;8.67;;;3.60;56.50;;;6.96;39.74;97814.66;5055250;28;20040;-45
2023/04/06 07:01:23;;;;;;;13.97;8.77;;;3.70;56.60;;;7.00;39.99;97818.72;5063117;28;20040;-43
2023/04/06 07:03:51;;;;;;;13.40;9.20;;;3.70;56.60;;;7.04;39.79;97818.34;5061198;28;20036;-44
2023/04/06 07:06:18;;;;;;;14.97;8.63;;;3.70;56.60;;;7.09;40.07;97818.78;5059895;28;20040;-46
2023/04/06 07:08:46;;;;;;;11.80;8.30;;;3.80;56.90;;;7.15;40.91;97813.91;5061699;28;20076;-43
2023/04/06 07:11:13;;;;;;;13.40;8.77;;;3.80;57.40;;;7.20;40.45;97831.06;5064494;28;20045;-44
2023/04/06 07:13:42;;;;;;;13.70;8.90;;;3.90;57.50;;;7.25;40.59;97812.09;5060614;28;20057;-45
2023/04/06 07:16:10;;;;;;;17.07;9.40;;;4.00;57.70;;;7.30;40.49;97818.66;5059670;28;20524;-44
2023/04/06 07:18:38;;;;;;;15.87;9.10;;;4.00;57.50;;;7.37;40.46;97828.75;5050319;28;20545;-44
2023/04/06 07:21:06;;;;;;;11.37;8.13;;;4.10;57.60;;;7.43;40.48;97822.91;5062448;28;20045;-43
2023/04/06 07:23:33;;;;;;;13.30;8.83;;;4.20;57.40;;;7.49;40.75;97819.69;5063649;28;20037;-42
2023/04/06 07:26:01;;;;;;;12.00;8.77;;;4.30;57.20;;;7.56;40.37;97830.56;5061224;28;20055;-42
2023/04/06 07:28:28;;;;;;;13.27;9.50;;;4.30;56.90;;;7.63;40.57;97824.56;5059869;28;20048;-42
2023/04/06 07:30:56;;;;;;;12.67;8.50;;;4.40;56.60;;;7.69;40.47;97829.31;5062295;28;20521;-43
2023/04/06 07:33:27;;;;;;;14.93;8.23;;;4.50;56.60;;;7.75;39.99;97824.44;5061951;28;20041;-42
2023/04/06 07:35:55;;;;;;;14.43;8.80;;;4.50;56.40;;;7.81;40.46;97815.94;5060917;28;20498;-43
2023/04/06 07:38:23;;;;;;;15.87;9.27;;;4.60;56.50;;;7.87;40.51;97821.53;5059475;28;20044;-43
2023/04/06 07:40:51;;;;;;;15.17;8.83;;;4.70;56.60;;;7.94;40.19;97821.78;5061077;28;20182;-44
2023/04/06 07:43:19;;;;;;;14.20;8.80;;;4.70;56.40;;;8.02;40.10;97827.22;5062102;28;20049;-44
2023/04/06 07:45:48;;;;;;;12.43;8.20;;;4.90;56.10;;;8.08;40.56;97833.78;5060157;28;20055;-44
2023/04/06 07:48:17;;;;;;;13.13;8.23;;;4.90;56.20;;;8.14;40.30;97829.72;5058581;28;20041;-42
2023/04/06 07:50:45;;;;;;;13.77;9.43;;;5.00;56.00;;;8.18;39.98;97829.31;5060431;28;20075;-44
2023/04/06 07:53:12;;;;;;;14.30;8.93;;;5.10;56.20;;;8.23;40.19;97832.38;5061554;28;20425;-45
2023/04/06 07:55:40;;;;;;;11.00;9.27;;;5.10;56.00;;;8.28;40.32;97835.44;5062633;28;20048;-43
2023/04/06 07:58:08;;;;;;;13.77;8.83;;;5.20;56.00;;;8.36;40.45;97829.44;5060593;28;20037;-43
2023/04/06 08:00:35;;;;;;;23.13;9.87;;;5.30;56.00;;;8.44;40.31;97832.22;5060709;28;20041;-43
2023/04/06 08:03:03;;;;;;;14.23;9.43;;;5.30;55.90;;;8.51;40.29;97829.00;5061750;28;20051;-45
2023/04/06 08:05:31;;;;;;;14.00;8.20;;;5.40;55.80;;;8.58;40.19;97824.81;5063711;28;20045;-43
2023/04/06 08:07:58;;;;;;;13.23;8.80;;;5.40;55.70;;;8.64;40.15;97829.53;5063808;28;20044;-43
2023/04/06 08:10:26;;;;;;;19.97;9.77;;;5.50;55.60;;;8.72;40.21;97828.81;5063387;28;20049;-43
2023/04/06 08:12:53;;;;;;;13.33;9.73;;;5.60;55.50;;;8.76;40.21;97827.53;5060385;28;20531;-43
2023/04/06 08:15:21;;;;;;;18.03;9.60;;;5.70;55.20;;;8.83;40.20;97829.47;5060169;28;20054;-43
2023/04/06 08:17:48;;;;;;;15.37;9.33;;;5.80;54.90;;;8.91;40.10;97835.88;5062066;28;20041;-44
2023/04/06 08:20:16;;;;;;;17.30;8.70;;;5.80;54.60;;;8.94;39.63;97828.44;5056876;28;20037;-45
2023/04/06 08:22:43;;;;;;;15.07;10.33;;;5.90;54.60;;;8.99;39.78;97834.13;5059144;28;20048;-45
2023/04/06 08:25:11;;;;;;;12.13;8.40;;;5.90;54.50;;;9.05;39.71;97833.56;5063315;28;20386;-44
2023/04/06 08:27:38;;;;;;;10.83;8.17;;;6.00;54.10;;;9.12;39.51;97831.16;5062698;28;20041;-43
2023/04/06 08:30:06;;;;;;;13.93;9.03;;;6.10;53.70;;;9.18;39.62;97829.72;5059833;28;20060;-43
2023/04/06 08:32:34;;;;;;;10.97;9.13;;;6.10;53.50;;;9.25;39.22;97830.81;5057175;28;20055;-44
2023/04/06 08:35:01;;;;;;;11.50;7.70;;;6.20;53.40;;;9.30;39.24;97830.38;5052115;28;20036;-45
2023/04/06 08:37:29;;;;;;;13.93;8.40;;;6.20;53.00;;;9.35;38.54;97828.94;5060779;28;20040;-43
2023/04/06 08:39:57;;;;;;;11.23;9.30;;;6.30;52.30;;;9.41;38.70;97824.84;5063256;28;20044;-45
2023/04/06 08:42:28;;;;;;;14.23;9.43;;;6.40;52.10;;;9.47;38.48;97829.56;5046301;28;20045;-45
2023/04/06 08:44:56;;;;;;;11.07;7.47;;;6.40;51.40;;;9.52;38.50;97826.44;5042729;28;20053;-44
2023/04/06 08:47:24;;;;;;;11.10;7.93;;;6.50;51.20;;;9.58;38.38;97820.56;5036819;28;20054;-43
2023/04/06 08:49:53;;;;;;;13.77;7.93;;;6.60;51.00;;;9.63;38.22;97827.09;5027096;28;20045;-43
2023/04/06 08:52:21;;;;;;;9.90;8.13;;;6.60;50.60;;;9.69;38.18;97830.09;5040161;28;20053;-46
2023/04/06 08:54:48;;;;;;;10.77;7.60;;;6.70;50.50;;;9.77;37.81;97830.19;5039079;28;20048;-46
2023/04/06 08:57:18;;;;;;;12.33;8.30;;;6.80;50.30;;;9.82;37.62;97828.75;5042172;28;20755;-53
2023/04/06 08:59:46;;;;;;;13.23;8.27;;;6.80;49.60;;;9.89;37.36;97828.13;5037850;28;20067;-51
2023/04/06 09:02:18;;;;;;;13.23;8.27;;;6.90;49.70;;;9.96;37.80;97822.06;5040510;28;20041;-52
2023/04/06 09:04:52;;;;;;;12.47;8.77;;;7.00;49.70;;;10.05;37.26;97815.00;5039556;28;20513;-54
2023/04/06 09:07:20;;;;;;;;;;;7.10;48.50;;;10.11;37.71;97817.03;5039620;28;20041;-52
2023/04/06 09:09:48;;;;;;;14.90;8.17;;;7.10;47.40;;;10.19;37.30;97814.44;5040129;28;19921;-55
2023/04/06 09:12:30;;;;;;;11.30;7.90;;;7.10;49.20;;;10.23;37.32;97818.44;5032311;28;20417;-54
2023/04/06 09:14:59;;;;;;;10.40;8.17;;;7.20;48.20;;;10.29;36.90;97818.81;5039128;28;20080;-56
2023/04/06 09:17:32;;;;;;;12.73;8.47;;;7.30;48.80;;;10.34;37.06;97822.72;5042179;28;20041;-43
2023/04/06 09:20:04;;;;;;;12.57;7.83;;;7.40;48.40;;;10.39;36.80;97816.94;5039754;28;20045;-46
2023/04/06 09:22:43;;;;;;;13.10;8.40;;;7.40;47.70;;;10.43;36.20;97816.47;5035313;28;20577;-44
2023/04/06 09:25:20;;;;;;;12.40;8.33;;;7.50;45.80;;;10.47;36.23;97809.03;5055391;28;20352;-43
2023/04/06 09:27:57;;;;;;;10.57;7.67;;;7.60;45.30;;;10.51;36.26;97822.84;5033708;28;20518;-55
2023/04/06 09:30:26;;;;;;;12.73;8.77;;;7.60;46.80;;;10.58;35.61;97808.72;5035070;28;20075;-53
2023/04/06 09:32:57;;;;;;;10.93;8.03;;;7.70;46.30;;;10.63;35.74;97816.28;5040660;28;20390;-54
2023/04/06 09:35:26;;;;;;;12.60;8.47;;;7.70;46.00;;;10.68;35.72;97811.28;5049279;28;20036;-43
2023/04/06 09:37:55;;;;;;;13.33;7.73;;;7.80;45.70;;;10.72;34.81;97807.34;5031797;28;20052;-45
2023/04/06 09:40:22;;;;;;;10.57;7.23;;;7.80;44.30;;;10.77;34.80;97806.84;5037627;28;20415;-43
2023/04/06 09:42:52;;;;;;;12.20;7.60;;;7.80;43.20;;;10.80;34.74;97807.38;5030389;28;20037;-44
2023/04/06 09:45:20;;;;;;;12.33;6.90;;;7.90;44.20;;;10.86;34.43;97802.38;5045603;28;20037;-46
2023/04/06 09:47:50;;;;;;;12.80;8.13;;;7.90;44.20;;;10.93;34.65;97806.91;5046182;28;20111;-46
2023/04/06 09:50:21;;;;;;;11.80;8.80;;;8.00;43.80;;;10.87;34.03;97801.41;5044730;28;20048;-45
2023/04/06 09:52:54;;;;;;;10.47;7.43;;;7.90;42.00;;;10.88;34.46;97801.25;5057909;28;20441;-48
2023/04/06 09:55:35;;;;;;;13.80;8.55;;;8.00;43.70;;;10.96;34.60;97798.63;5062701;28;20048;-46
2023/04/06 09:58:06;;;;;;;13.50;8.43;;;8.00;43.20;;;11.00;33.78;97797.31;5048090;28;20045;-46
2023/04/06 10:01:09;;;;;;;12.20;7.93;;;8.00;42.50;;;11.03;34.00;97798.81;5066347;28;20520;-47
2023/04/06 10:03:51;;;;;;;12.77;8.03;;;8.00;41.90;;;11.12;33.82;97797.84;5043299;28;20033;-46
2023/04/06 10:06:23;;;;;;;10.63;6.90;;;8.10;42.40;;;11.15;33.42;97794.06;5056556;28;20041;-46
2023/04/06 10:08:54;;;;;;;12.07;8.03;;;8.20;41.70;;;11.18;32.28;97801.69;5059868;28;20052;-45
2023/04/06 10:11:22;;;;;;;13.23;8.33;;;8.40;39.90;;;11.29;32.80;97798.75;5053473;28;20544;-45
2023/04/06 10:13:50;;;;;;;14.10;9.03;;;8.50;40.70;;;11.38;32.30;97794.25;5063256;28;20052;-47
2023/04/06 10:16:18;;;;;;;12.37;8.40;;;8.50;38.20;;;11.42;32.48;97792.97;5066443;28;20044;-44
2023/04/06 10:18:54;;;;;;;11.83;8.73;;;8.60;39.60;;;11.48;32.22;97786.16;5064075;28;20103;-47
2023/04/06 10:21:26;;;;;;;11.17;7.73;;;8.60;39.50;;;11.54;31.67;97788.16;5062587;28;20052;-49
2023/04/06 10:24:02;;;;;;;12.77;8.57;;;8.60;39.30;;;11.57;31.78;97788.66;5061682;28;20041;-44
2023/04/06 10:26:31;;;;;;;16.37;8.70;;;8.70;38.80;;;11.65;31.96;97782.50;5060971;28;20056;-46
2023/04/06 10:29:04;;;;;;;9.93;7.63;;;8.80;39.90;;;11.76;31.56;97784.00;5063402;28;20059;-47
2023/04/06 10:31:32;;;;;;;15.23;9.13;;;8.90;38.80;;;11.81;31.81;97776.34;5062347;28;20048;-46
2023/04/06 10:34:01;;;;;;;15.17;8.23;;;9.00;39.30;;;11.86;31.75;97779.34;5062822;28;20296;-45
2023/04/06 10:36:33;;;;;;;11.87;8.80;;;9.10;39.80;;;11.96;31.77;97776.53;5063912;28;20056;-45
2023/04/06 10:39:05;;;;;;;10.67;7.80;;;9.10;40.20;;;12.03;31.36;97788.22;5062994;28;20413;-47